sensor_id;sensor_type;location;lat;lon;timestamp;pressure;altitude;pressure_sealevel;temperature;humidity
82784;BME280;72520;55.762;37.780;2024-03-08T00:02:44;100050.22;;;-1.92;61.72
82784;BME280;72520;55.762;37.780;2024-03-08T00:05:50;100041.50;;;-1.92;59.85
82784;BME280;72520;55.762;37.780;2024-03-08T00:08:52;100043.38;;;-2.02;59.83
82784;BME280;72520;55.762;37.780;2024-03-08T00:11:57;100033.00;;;-2.08;59.98
82784;BME280;72520;55.762;37.780;2024-03-08T00:15:00;100035.66;;;-2.11;60.98
82784;BME280;72520;55.762;37.780;2024-03-08T00:18:06;100026.84;;;-2.02;60.18
82784;BME280;72520;55.762;37.780;2024-03-08T00:21:08;100024.25;;;-2.02;59.61
82784;BME280;72520;55.762;37.780;2024-03-08T00:24:11;100016.47;;;-2.06;60.58
82784;BME280;72520;55.762;37.780;2024-03-08T00:27:14;100007.81;;;-2.11;60.55
82784;BME280;72520;55.762;37.780;2024-03-08T00:30:17;100013.00;;;-2.06;60.20
82784;BME280;72520;55.762;37.780;2024-03-08T00:33:25;100000.81;;;-2.06;60.07
82784;BME280;72520;55.762;37.780;2024-03-08T00:36:27;100007.72;;;-2.03;60.10
82784;BME280;72520;55.762;37.780;2024-03-08T00:39:30;99998.00;;;-1.90;59.58
82784;BME280;72520;55.762;37.780;2024-03-08T00:42:35;99991.88;;;-1.86;59.22
82784;BME280;72520;55.762;37.780;2024-03-08T00:45:39;99985.78;;;-1.87;58.99
82784;BME280;72520;55.762;37.780;2024-03-08T00:48:44;99978.06;;;-1.93;59.99
82784;BME280;72520;55.762;37.780;2024-03-08T00:51:47;99978.00;;;-1.88;59.71
82784;BME280;72520;55.762;37.780;2024-03-08T00:54:49;99973.66;;;-1.88;60.02
82784;BME280;72520;55.762;37.780;2024-03-08T00:57:52;99969.97;;;-1.72;59.00
82784;BME280;72520;55.762;37.780;2024-03-08T01:00:56;99962.09;;;-1.67;59.32
82784;BME280;72520;55.762;37.780;2024-03-08T01:04:02;99951.59;;;-1.64;59.18
82784;BME280;72520;55.762;37.780;2024-03-08T01:07:07;99964.78;;;-1.75;59.30
82784;BME280;72520;55.762;37.780;2024-03-08T01:10:12;99954.31;;;-1.72;59.21
82784;BME280;72520;55.762;37.780;2024-03-08T01:13:14;99962.19;;;-1.76;59.93
82784;BME280;72520;55.762;37.780;2024-03-08T01:16:17;99963.09;;;-1.79;59.40
82784;BME280;72520;55.762;37.780;2024-03-08T01:19:24;99963.88;;;-1.72;59.83
82784;BME280;72520;55.762;37.780;2024-03-08T01:22:26;99956.69;;;-1.55;58.79
82784;BME280;72520;55.762;37.780;2024-03-08T01:25:33;99959.44;;;-1.64;60.12
82784;BME280;72520;55.762;37.780;2024-03-08T01:28:36;99957.88;;;-1.79;59.31
82784;BME280;72520;55.762;37.780;2024-03-08T01:31:38;99956.19;;;-1.81;60.06
82784;BME280;72520;55.762;37.780;2024-03-08T01:34:42;99952.63;;;-1.76;59.44
82784;BME280;72520;55.762;37.780;2024-03-08T01:37:45;99945.75;;;-1.83;59.36
82784;BME280;72520;55.762;37.780;2024-03-08T01:40:48;99943.16;;;-1.83;59.98
82784;BME280;72520;55.762;37.780;2024-03-08T01:43:51;99941.59;;;-1.96;59.48
82784;BME280;72520;55.762;37.780;2024-03-08T01:46:54;99939.88;;;-1.98;60.03
82784;BME280;72520;55.762;37.780;2024-03-08T01:49:58;99940.81;;;-2.02;60.01
82784;BME280;72520;55.762;37.780;2024-03-08T01:53:00;99934.53;;;-1.89;59.85
82784;BME280;72520;55.762;37.780;2024-03-08T01:56:04;99939.63;;;-1.77;59.37
82784;BME280;72520;55.762;37.780;2024-03-08T01:59:10;99937.22;;;-1.94;60.29
82784;BME280;72520;55.762;37.780;2024-03-08T02:02:17;99929.19;;;-1.79;59.62
82784;BME280;72520;55.762;37.780;2024-03-08T02:05:30;99926.59;;;-1.80;59.81
82784;BME280;72520;55.762;37.780;2024-03-08T02:08:36;99915.31;;;-1.82;59.76
82784;BME280;72520;55.762;37.780;2024-03-08T02:11:40;99913.47;;;-1.74;59.69
82784;BME280;72520;55.762;37.780;2024-03-08T02:14:44;99911.75;;;-1.75;59.68
82784;BME280;72520;55.762;37.780;2024-03-08T02:17:46;99916.13;;;-1.77;60.07
82784;BME280;72520;55.762;37.780;2024-03-08T02:20:54;99914.22;;;-1.66;59.99
82784;BME280;72520;55.762;37.780;2024-03-08T02:23:56;99921.41;;;-1.83;59.48
82784;BME280;72520;55.762;37.780;2024-03-08T02:26:59;99918.09;;;-1.94;60.03
82784;BME280;72520;55.762;37.780;2024-03-08T02:30:01;99913.84;;;-2.01;60.65
82784;BME280;72520;55.762;37.780;2024-03-08T02:33:05;99915.59;;;-2.03;60.89
82784;BME280;72520;55.762;37.780;2024-03-08T02:36:13;99908.69;;;-2.04;60.58
82784;BME280;72520;55.762;37.780;2024-03-08T02:39:17;99920.53;;;-1.82;60.88
82784;BME280;72520;55.762;37.780;2024-03-08T02:42:23;99910.09;;;-1.82;60.54
82784;BME280;72520;55.762;37.780;2024-03-08T02:45:25;99906.47;;;-1.72;59.85
82784;BME280;72520;55.762;37.780;2024-03-08T02:48:30;99910.06;;;-1.79;60.13
82784;BME280;72520;55.762;37.780;2024-03-08T02:51:34;99899.84;;;-1.94;60.55
82784;BME280;72520;55.762;37.780;2024-03-08T02:54:37;99903.44;;;-2.01;60.83
82784;BME280;72520;55.762;37.780;2024-03-08T02:57:41;99901.75;;;-2.06;61.03
82784;BME280;72520;55.762;37.780;2024-03-08T03:00:44;99895.59;;;-2.01;60.43
82784;BME280;72520;55.762;37.780;2024-03-08T03:03:47;99886.06;;;-2.04;60.26
82784;BME280;72520;55.762;37.780;2024-03-08T03:06:50;99887.00;;;-2.10;60.54
82784;BME280;72520;55.762;37.780;2024-03-08T03:09:53;99882.72;;;-2.14;60.61
82784;BME280;72520;55.762;37.780;2024-03-08T03:12:56;99884.31;;;-2.03;60.40
82784;BME280;72520;55.762;37.780;2024-03-08T03:15:58;99874.56;;;-1.88;60.29
82784;BME280;72520;55.762;37.780;2024-03-08T03:19:00;99883.38;;;-1.98;59.98
82784;BME280;72520;55.762;37.780;2024-03-08T03:22:07;99869.63;;;-2.11;60.76
82784;BME280;72520;55.762;37.780;2024-03-08T03:25:10;99872.56;;;-2.33;60.88
82784;BME280;72520;55.762;37.780;2024-03-08T03:28:20;99870.31;;;-2.62;61.95
82784;BME280;72520;55.762;37.780;2024-03-08T03:31:24;99858.03;;;-2.54;61.90
82784;BME280;72520;55.762;37.780;2024-03-08T03:34:26;99849.00;;;-2.27;61.20
82784;BME280;72520;55.762;37.780;2024-03-08T03:37:31;99846.63;;;-2.44;61.81
82784;BME280;72520;55.762;37.780;2024-03-08T03:40:34;99854.34;;;-2.38;62.13
82784;BME280;72520;55.762;37.780;2024-03-08T03:43:46;99862.25;;;-2.44;62.35
82784;BME280;72520;55.762;37.780;2024-03-08T03:46:50;99861.56;;;-2.57;62.93
82784;BME280;72520;55.762;37.780;2024-03-08T03:49:52;99858.66;;;-2.34;61.96
82784;BME280;72520;55.762;37.780;2024-03-08T03:52:56;99846.44;;;-2.29;62.38
82784;BME280;72520;55.762;37.780;2024-03-08T03:56:00;99853.47;;;-2.37;62.38
82784;BME280;72520;55.762;37.780;2024-03-08T03:59:02;99852.63;;;-1.76;61.45
82784;BME280;72520;55.762;37.780;2024-03-08T04:02:05;99853.84;;;-1.98;60.96
82784;BME280;72520;55.762;37.780;2024-03-08T04:05:08;99849.06;;;-2.30;62.15
82784;BME280;72520;55.762;37.780;2024-03-08T04:08:12;99850.72;;;-2.25;62.54
82784;BME280;72520;55.762;37.780;2024-03-08T04:11:18;99854.06;;;-2.15;61.95
82784;BME280;72520;55.762;37.780;2024-03-08T04:14:20;99846.22;;;-2.12;62.46
82784;BME280;72520;55.762;37.780;2024-03-08T04:17:23;99836.31;;;-1.90;61.93
82784;BME280;72520;55.762;37.780;2024-03-08T04:20:27;99839.16;;;-2.06;61.13
82784;BME280;72520;55.762;37.780;2024-03-08T04:23:31;99835.38;;;-2.46;62.33
82784;BME280;72520;55.762;37.780;2024-03-08T04:26:34;99839.88;;;-2.62;63.25
82784;BME280;72520;55.762;37.780;2024-03-08T04:29:39;99839.97;;;-2.66;63.90
82784;BME280;72520;55.762;37.780;2024-03-08T04:32:42;99839.94;;;-2.63;63.36
82784;BME280;72520;55.762;37.780;2024-03-08T04:35:48;99837.13;;;-2.48;63.24
82784;BME280;72520;55.762;37.780;2024-03-08T04:38:52;99833.50;;;-2.38;63.52
82784;BME280;72520;55.762;37.780;2024-03-08T04:41:59;99834.47;;;-2.42;64.08
82784;BME280;72520;55.762;37.780;2024-03-08T04:45:04;99835.31;;;-2.43;64.04
82784;BME280;72520;55.762;37.780;2024-03-08T04:48:08;99832.81;;;-2.50;64.28
82784;BME280;72520;55.762;37.780;2024-03-08T04:51:17;99829.38;;;-2.52;64.21
82784;BME280;72520;55.762;37.780;2024-03-08T04:54:21;99814.56;;;-2.50;64.99
82784;BME280;72520;55.762;37.780;2024-03-08T04:57:26;99812.47;;;-2.21;64.10
82784;BME280;72520;55.762;37.780;2024-03-08T05:00:29;99815.63;;;-2.01;64.10
82784;BME280;72520;55.762;37.780;2024-03-08T05:03:31;99817.28;;;-1.97;63.94
82784;BME280;72520;55.762;37.780;2024-03-08T05:06:34;99806.38;;;-2.22;64.15
82784;BME280;72520;55.762;37.780;2024-03-08T05:09:38;99808.34;;;-2.39;66.16
82784;BME280;72520;55.762;37.780;2024-03-08T05:12:41;99806.75;;;-2.50;66.40
82784;BME280;72520;55.762;37.780;2024-03-08T05:15:47;99808.97;;;-2.22;65.42
82784;BME280;72520;55.762;37.780;2024-03-08T05:18:52;99801.22;;;-2.25;65.78
82784;BME280;72520;55.762;37.780;2024-03-08T05:21:54;99799.47;;;-2.26;66.56
82784;BME280;72520;55.762;37.780;2024-03-08T05:24:58;99795.19;;;-2.28;66.24
82784;BME280;72520;55.762;37.780;2024-03-08T05:28:05;99801.03;;;-2.14;65.88
82784;BME280;72520;55.762;37.780;2024-03-08T05:31:07;99800.06;;;-2.07;65.95
82784;BME280;72520;55.762;37.780;2024-03-08T05:34:10;99794.91;;;-2.10;66.02
82784;BME280;72520;55.762;37.780;2024-03-08T05:37:15;99791.47;;;-2.14;66.29
82784;BME280;72520;55.762;37.780;2024-03-08T05:40:24;99791.38;;;-2.06;66.27
82784;BME280;72520;55.762;37.780;2024-03-08T05:43:27;99789.56;;;-2.02;66.21
82784;BME280;72520;55.762;37.780;2024-03-08T05:46:29;99800.88;;;-2.03;66.93
82784;BME280;72520;55.762;37.780;2024-03-08T05:49:31;99790.41;;;-2.00;66.21
82784;BME280;72520;55.762;37.780;2024-03-08T05:52:34;99787.69;;;-1.93;66.04
82784;BME280;72520;55.762;37.780;2024-03-08T05:55:38;99789.34;;;-1.87;66.31
82784;BME280;72520;55.762;37.780;2024-03-08T05:58:41;99790.75;;;-1.68;65.79
82784;BME280;72520;55.762;37.780;2024-03-08T06:01:46;99792.34;;;-1.58;65.25
82784;BME280;72520;55.762;37.780;2024-03-08T06:04:51;99788.94;;;-1.14;63.88
82784;BME280;72520;55.762;37.780;2024-03-08T06:07:53;99790.22;;;-1.36;63.90
82784;BME280;72520;55.762;37.780;2024-03-08T06:10:58;99789.31;;;-1.34;64.34
82784;BME280;72520;55.762;37.780;2024-03-08T06:14:03;99788.94;;;-1.16;64.11
82784;BME280;72520;55.762;37.780;2024-03-08T06:17:05;99791.78;;;-1.26;64.05
82784;BME280;72520;55.762;37.780;2024-03-08T06:20:08;99792.59;;;-1.24;64.40
82784;BME280;72520;55.762;37.780;2024-03-08T06:23:18;99785.19;;;-1.01;63.39
82784;BME280;72520;55.762;37.780;2024-03-08T06:26:21;99783.50;;;-1.04;63.79
82784;BME280;72520;55.762;37.780;2024-03-08T06:29:26;99781.84;;;-1.08;63.75
82784;BME280;72520;55.762;37.780;2024-03-08T06:32:29;99780.16;;;-1.12;64.31
82784;BME280;72520;55.762;37.780;2024-03-08T06:35:36;99777.38;;;-0.58;62.83
82784;BME280;72520;55.762;37.780;2024-03-08T06:38:38;99781.22;;;-0.77;63.12
82784;BME280;72520;55.762;37.780;2024-03-08T06:41:48;99770.94;;;-0.43;61.68
82784;BME280;72520;55.762;37.780;2024-03-08T06:44:52;99771.50;;;-0.29;61.20
82784;BME280;72520;55.762;37.780;2024-03-08T06:47:56;99773.97;;;-0.23;61.15
82784;BME280;72520;55.762;37.780;2024-03-08T06:51:01;99781.44;;;-0.07;60.25
82784;BME280;72520;55.762;37.780;2024-03-08T06:54:03;99769.34;;;-0.11;60.19
82784;BME280;72520;55.762;37.780;2024-03-08T06:57:10;99775.13;;;-0.35;60.71
82784;BME280;72520;55.762;37.780;2024-03-08T07:00:15;99776.09;;;-0.40;61.29
82784;BME280;72520;55.762;37.780;2024-03-08T07:03:21;99773.47;;;-0.39;61.04
82784;BME280;72520;55.762;37.780;2024-03-08T07:06:25;99772.44;;;-0.33;61.34
82784;BME280;72520;55.762;37.780;2024-03-08T07:09:27;99767.84;;;-0.22;60.91
82784;BME280;72520;55.762;37.780;2024-03-08T07:12:37;99780.28;;;-0.32;61.66
82784;BME280;72520;55.762;37.780;2024-03-08T07:15:42;99780.28;;;-0.32;61.35
82784;BME280;72520;55.762;37.780;2024-03-08T07:18:47;99781.88;;;0.11;59.99
82784;BME280;72520;55.762;37.780;2024-03-08T07:21:53;99778.22;;;0.19;59.70
82784;BME280;72520;55.762;37.780;2024-03-08T07:24:56;99768.63;;;0.20;60.09
82784;BME280;72520;55.762;37.780;2024-03-08T07:28:23;99780.75;;;0.22;59.99
82784;BME280;72520;55.762;37.780;2024-03-08T07:31:38;99773.69;;;0.26;59.61
82784;BME280;72520;55.762;37.780;2024-03-08T07:34:51;99769.25;;;0.29;60.14
82784;BME280;72520;55.762;37.780;2024-03-08T07:37:53;99774.22;;;0.40;59.02
82784;BME280;72520;55.762;37.780;2024-03-08T07:40:56;99773.50;;;0.67;59.20
82784;BME280;72520;55.762;37.780;2024-03-08T07:47:24;99767.59;;;0.59;58.47
82784;BME280;72520;55.762;37.780;2024-03-08T07:50:27;99768.53;;;0.57;60.16
82784;BME280;72520;55.762;37.780;2024-03-08T07:53:29;99767.06;;;0.46;60.43
82784;BME280;72520;55.762;37.780;2024-03-08T07:56:31;99769.06;;;0.69;59.61
82784;BME280;72520;55.762;37.780;2024-03-08T07:59:39;99759.91;;;0.85;58.54
82784;BME280;72520;55.762;37.780;2024-03-08T08:02:41;99762.22;;;0.97;58.19
82784;BME280;72520;55.762;37.780;2024-03-08T08:05:46;99753.59;;;0.92;58.44
82784;BME280;72520;55.762;37.780;2024-03-08T08:08:51;99755.25;;;0.96;58.24
82784;BME280;72520;55.762;37.780;2024-03-08T08:11:54;99761.31;;;0.98;58.19
82784;BME280;72520;55.762;37.780;2024-03-08T08:14:59;99752.53;;;0.99;57.84
82784;BME280;72520;55.762;37.780;2024-03-08T08:18:04;99758.28;;;0.81;59.02
82784;BME280;72520;55.762;37.780;2024-03-08T08:21:07;99750.25;;;0.87;58.63
82784;BME280;72520;55.762;37.780;2024-03-08T08:24:10;99757.94;;;0.93;58.35
82784;BME280;72520;55.762;37.780;2024-03-08T08:27:12;99753.91;;;1.13;58.21
82784;BME280;72520;55.762;37.780;2024-03-08T08:30:17;99746.69;;;1.21;58.19
82784;BME280;72520;55.762;37.780;2024-03-08T08:33:21;99758.53;;;1.34;57.99
82784;BME280;72520;55.762;37.780;2024-03-08T08:36:26;99748.38;;;1.52;57.87
82784;BME280;72520;55.762;37.780;2024-03-08T08:39:30;99752.09;;;1.45;58.01
82784;BME280;72520;55.762;37.780;2024-03-08T08:42:33;99758.72;;;1.57;57.63
82784;BME280;72520;55.762;37.780;2024-03-08T08:45:37;99755.78;;;1.38;57.98
82784;BME280;72520;55.762;37.780;2024-03-08T08:48:39;99753.09;;;1.41;57.95
82784;BME280;72520;55.762;37.780;2024-03-08T08:51:51;99759.69;;;1.25;58.94
82784;BME280;72520;55.762;37.780;2024-03-08T08:54:53;99741.13;;;1.61;58.01
82784;BME280;72520;55.762;37.780;2024-03-08T08:57:55;99742.91;;;1.31;58.76
82784;BME280;72520;55.762;37.780;2024-03-08T09:00:59;99741.19;;;1.30;58.82
82784;BME280;72520;55.762;37.780;2024-03-08T09:04:06;99739.28;;;1.35;58.83
82784;BME280;72520;55.762;37.780;2024-03-08T09:07:09;99741.19;;;1.30;59.23
82784;BME280;72520;55.762;37.780;2024-03-08T09:10:14;99732.31;;;1.34;59.41
82784;BME280;72520;55.762;37.780;2024-03-08T09:13:16;99723.19;;;1.47;58.59
82784;BME280;72520;55.762;37.780;2024-03-08T09:16:20;99720.91;;;1.64;58.14
82784;BME280;72520;55.762;37.780;2024-03-08T09:19:23;99719.69;;;1.76;58.81
82784;BME280;72520;55.762;37.780;2024-03-08T09:22:26;99723.50;;;1.93;58.07
82784;BME280;72520;55.762;37.780;2024-03-08T09:25:31;99723.50;;;1.93;58.54
82784;BME280;72520;55.762;37.780;2024-03-08T09:28:36;99721.97;;;1.86;58.80
82784;BME280;72520;55.762;37.780;2024-03-08T09:31:40;99723.09;;;2.05;58.44
82784;BME280;72520;55.762;37.780;2024-03-08T09:34:42;99722.66;;;1.91;59.39
82784;BME280;72520;55.762;37.780;2024-03-08T09:37:45;99723.78;;;1.84;59.30
82784;BME280;72520;55.762;37.780;2024-03-08T09:40:52;99724.44;;;1.91;58.74
82784;BME280;72520;55.762;37.780;2024-03-08T09:43:56;99716.13;;;2.04;58.62
82784;BME280;72520;55.762;37.780;2024-03-08T09:47:02;99720.22;;;2.13;58.48
82784;BME280;72520;55.762;37.780;2024-03-08T09:50:05;99727.53;;;2.03;58.79
82784;BME280;72520;55.762;37.780;2024-03-08T09:53:11;99723.91;;;2.34;57.90
82784;BME280;72520;55.762;37.780;2024-03-08T09:56:16;99723.69;;;2.40;57.62
82784;BME280;72520;55.762;37.780;2024-03-08T09:59:21;99727.56;;;2.28;58.00
82784;BME280;72520;55.762;37.780;2024-03-08T10:02:53;99728.03;;;2.15;58.36
82784;BME280;72520;55.762;37.780;2024-03-08T10:05:56;99723.75;;;2.12;59.07
82784;BME280;72520;55.762;37.780;2024-03-08T10:09:04;99719.50;;;2.08;59.07
82784;BME280;72520;55.762;37.780;2024-03-08T10:12:11;99723.81;;;2.37;57.96
82784;BME280;72520;55.762;37.780;2024-03-08T10:15:15;99726.47;;;2.35;58.48
82784;BME280;72520;55.762;37.780;2024-03-08T10:18:23;99724.00;;;2.31;58.68
82784;BME280;72520;55.762;37.780;2024-03-08T10:21:48;99715.81;;;2.40;57.99
82784;BME280;72520;55.762;37.780;2024-03-08T10:25:00;99716.22;;;2.54;57.86
82784;BME280;72520;55.762;37.780;2024-03-08T10:28:08;99718.34;;;2.43;57.77
82784;BME280;72520;55.762;37.780;2024-03-08T10:31:10;99713.22;;;2.38;58.07
82784;BME280;72520;55.762;37.780;2024-03-08T10:34:14;99717.25;;;2.24;58.16
82784;BME280;72520;55.762;37.780;2024-03-08T10:37:40;99726.66;;;2.31;58.42
82784;BME280;72520;55.762;37.780;2024-03-08T10:40:46;99712.81;;;2.50;58.41
82784;BME280;72520;55.762;37.780;2024-03-08T10:44:06;99709.59;;;2.42;58.65
82784;BME280;72520;55.762;37.780;2024-03-08T10:47:21;99717.00;;;2.31;58.84
82784;BME280;72520;55.762;37.780;2024-03-08T10:50:32;99717.69;;;2.36;59.06
82784;BME280;72520;55.762;37.780;2024-03-08T10:53:36;99716.28;;;2.26;58.95
82784;BME280;72520;55.762;37.780;2024-03-08T10:56:42;99717.53;;;2.15;59.63
82784;BME280;72520;55.762;37.780;2024-03-08T10:59:47;99721.53;;;2.26;58.50
82784;BME280;72520;55.762;37.780;2024-03-08T11:02:54;99702.22;;;2.53;58.48
82784;BME280;72520;55.762;37.780;2024-03-08T11:05:58;99700.50;;;2.77;57.20
82784;BME280;72520;55.762;37.780;2024-03-08T11:09:02;99712.94;;;2.47;58.81
82784;BME280;72520;55.762;37.780;2024-03-08T11:12:20;99711.47;;;2.39;59.14
82784;BME280;72520;55.762;37.780;2024-03-08T11:15:33;99706.19;;;2.65;57.89
82784;BME280;72520;55.762;37.780;2024-03-08T11:18:36;99703.72;;;2.61;58.56
82784;BME280;72520;55.762;37.780;2024-03-08T11:21:46;99705.38;;;2.63;58.27
82784;BME280;72520;55.762;37.780;2024-03-08T11:24:49;99698.47;;;2.85;58.05
82784;BME280;72520;55.762;37.780;2024-03-08T11:27:53;99695.84;;;2.85;58.14
82784;BME280;72520;55.762;37.780;2024-03-08T11:31:24;99686.06;;;2.89;57.27
82784;BME280;72520;55.762;37.780;2024-03-08T11:34:27;99685.25;;;2.62;59.04
82784;BME280;72520;55.762;37.780;2024-03-08T11:37:33;99684.00;;;2.72;58.07
82784;BME280;72520;55.762;37.780;2024-03-08T11:40:36;99687.56;;;2.71;58.69
82784;BME280;72520;55.762;37.780;2024-03-08T11:43:46;99693.22;;;2.85;58.31
82784;BME280;72520;55.762;37.780;2024-03-08T11:46:49;99694.75;;;2.66;58.80
82784;BME280;72520;55.762;37.780;2024-03-08T11:49:51;99686.94;;;2.65;58.68
82784;BME280;72520;55.762;37.780;2024-03-08T11:53:00;99691.47;;;2.84;58.15
82784;BME280;72520;55.762;37.780;2024-03-08T11:56:07;99692.72;;;2.99;57.30
82784;BME280;72520;55.762;37.780;2024-03-08T11:59:14;99694.72;;;3.16;57.19
82784;BME280;72520;55.762;37.780;2024-03-08T12:02:19;99692.75;;;2.97;57.86
82784;BME280;72520;55.762;37.780;2024-03-08T12:05:22;99699.66;;;3.00;58.09
82784;BME280;72520;55.762;37.780;2024-03-08T12:08:27;99697.22;;;2.95;57.74
82784;BME280;72520;55.762;37.780;2024-03-08T12:11:33;99701.00;;;2.87;58.47
82784;BME280;72520;55.762;37.780;2024-03-08T12:14:36;99699.22;;;2.89;58.09
82784;BME280;72520;55.762;37.780;2024-03-08T12:17:39;99697.34;;;2.92;57.69
82784;BME280;72520;55.762;37.780;2024-03-08T12:20:43;99699.38;;;2.84;58.31
82784;BME280;72520;55.762;37.780;2024-03-08T12:24:04;99702.91;;;2.83;57.67
82784;BME280;72520;55.762;37.780;2024-03-08T12:27:21;99708.69;;;2.93;57.29
82784;BME280;72520;55.762;37.780;2024-03-08T12:30:26;99710.50;;;2.91;57.62
82784;BME280;72520;55.762;37.780;2024-03-08T12:33:29;99705.25;;;2.91;56.64
82784;BME280;72520;55.762;37.780;2024-03-08T12:36:34;99710.09;;;2.78;57.51
82784;BME280;72520;55.762;37.780;2024-03-08T12:39:40;99696.75;;;2.84;56.82
82784;BME280;72520;55.762;37.780;2024-03-08T12:42:45;99698.22;;;2.91;57.59
82784;BME280;72520;55.762;37.780;2024-03-08T12:45:48;99681.59;;;3.14;55.69
82784;BME280;72520;55.762;37.780;2024-03-08T12:48:52;99691.97;;;2.95;57.01
82784;BME280;72520;55.762;37.780;2024-03-08T12:51:54;99717.06;;;2.79;58.16
82784;BME280;72520;55.762;37.780;2024-03-08T12:54:58;99721.41;;;3.05;56.89
82784;BME280;72520;55.762;37.780;2024-03-08T12:58:04;99718.81;;;3.03;56.66
82784;BME280;72520;55.762;37.780;2024-03-08T13:01:08;99713.16;;;3.14;56.27
82784;BME280;72520;55.762;37.780;2024-03-08T13:04:10;99712.41;;;3.34;55.68
82784;BME280;72520;55.762;37.780;2024-03-08T13:07:12;99712.53;;;3.31;55.79
82784;BME280;72520;55.762;37.780;2024-03-08T13:10:19;99711.22;;;3.42;54.95
82784;BME280;72520;55.762;37.780;2024-03-08T13:13:21;99712.13;;;3.41;54.68
82784;BME280;72520;55.762;37.780;2024-03-08T13:16:27;99715.38;;;3.25;55.35
82784;BME280;72520;55.762;37.780;2024-03-08T13:19:30;99716.19;;;3.27;55.18
82784;BME280;72520;55.762;37.780;2024-03-08T13:22:32;99712.19;;;3.17;56.05
82784;BME280;72520;55.762;37.780;2024-03-08T13:25:36;99711.66;;;3.07;55.98
82784;BME280;72520;55.762;37.780;2024-03-08T13:28:39;99695.84;;;3.32;55.38
82784;BME280;72520;55.762;37.780;2024-03-08T13:31:41;99698.34;;;3.35;55.21
82784;BME280;72520;55.762;37.780;2024-03-08T13:34:43;99703.63;;;3.12;55.94
82784;BME280;72520;55.762;37.780;2024-03-08T13:37:46;99686.22;;;3.07;56.90
82784;BME280;72520;55.762;37.780;2024-03-08T13:40:50;99680.53;;;3.20;55.97
82784;BME280;72520;55.762;37.780;2024-03-08T13:43:52;99687.06;;;3.10;56.11
82784;BME280;72520;55.762;37.780;2024-03-08T13:46:59;99677.84;;;2.98;56.10
82784;BME280;72520;55.762;37.780;2024-03-08T13:50:06;99697.81;;;2.79;56.90
82784;BME280;72520;55.762;37.780;2024-03-08T13:53:13;99706.66;;;2.76;56.82
82784;BME280;72520;55.762;37.780;2024-03-08T13:56:17;99709.25;;;2.78;56.45
82784;BME280;72520;55.762;37.780;2024-03-08T13:59:19;99710.63;;;2.63;56.51
82784;BME280;72520;55.762;37.780;2024-03-08T14:02:23;99711.78;;;2.79;56.49
82784;BME280;72520;55.762;37.780;2024-03-08T14:05:28;99713.03;;;2.69;56.49
82784;BME280;72520;55.762;37.780;2024-03-08T14:08:35;99707.13;;;2.63;57.00
82784;BME280;72520;55.762;37.780;2024-03-08T14:11:40;99706.16;;;2.90;57.35
82784;BME280;72520;55.762;37.780;2024-03-08T14:14:44;99688.34;;;2.98;55.94
82784;BME280;72520;55.762;37.780;2024-03-08T14:17:52;99696.09;;;2.78;56.47
82784;BME280;72520;55.762;37.780;2024-03-08T14:20:56;99705.63;;;2.80;56.28
82784;BME280;72520;55.762;37.780;2024-03-08T14:24:02;99698.50;;;2.84;56.53
82784;BME280;72520;55.762;37.780;2024-03-08T14:27:06;99704.47;;;2.89;56.00
82784;BME280;72520;55.762;37.780;2024-03-08T14:30:11;99708.78;;;2.90;56.34
82784;BME280;72520;55.762;37.780;2024-03-08T14:33:16;99711.50;;;2.88;56.27
82784;BME280;72520;55.762;37.780;2024-03-08T14:36:18;99708.09;;;3.10;56.20
82784;BME280;72520;55.762;37.780;2024-03-08T14:39:22;99708.13;;;3.08;56.45
82784;BME280;72520;55.762;37.780;2024-03-08T14:42:35;99706.88;;;3.18;56.00
82784;BME280;72520;55.762;37.780;2024-03-08T14:45:37;99705.66;;;3.03;56.31
82784;BME280;72520;55.762;37.780;2024-03-08T14:48:42;99704.75;;;3.04;56.16
82784;BME280;72520;55.762;37.780;2024-03-08T14:51:50;99698.13;;;3.18;56.56
82784;BME280;72520;55.762;37.780;2024-03-08T14:54:52;99693.09;;;3.12;56.66
82784;BME280;72520;55.762;37.780;2024-03-08T14:57:56;99705.00;;;3.22;55.71
82784;BME280;72520;55.762;37.780;2024-03-08T15:01:00;99709.00;;;3.08;56.24
82784;BME280;72520;55.762;37.780;2024-03-08T15:04:03;99711.03;;;3.00;57.01
82784;BME280;72520;55.762;37.780;2024-03-08T15:07:09;99712.81;;;3.00;56.88
82784;BME280;72520;55.762;37.780;2024-03-08T15:10:12;99709.09;;;3.05;57.00
82784;BME280;72520;55.762;37.780;2024-03-08T15:13:18;99707.56;;;3.23;56.74
82784;BME280;72520;55.762;37.780;2024-03-08T15:16:28;99712.13;;;3.18;56.69
82784;BME280;72520;55.762;37.780;2024-03-08T15:19:32;99709.75;;;2.87;57.87
82784;BME280;72520;55.762;37.780;2024-03-08T15:22:37;99720.25;;;2.89;57.59
82784;BME280;72520;55.762;37.780;2024-03-08T15:25:40;99713.63;;;2.77;58.17
82784;BME280;72520;55.762;37.780;2024-03-08T15:28:47;99711.75;;;2.81;57.87
82784;BME280;72520;55.762;37.780;2024-03-08T15:31:53;99723.91;;;2.83;58.31
82784;BME280;72520;55.762;37.780;2024-03-08T15:34:55;99726.16;;;2.69;58.64
82784;BME280;72520;55.762;37.780;2024-03-08T15:37:57;99729.28;;;2.80;58.23
82784;BME280;72520;55.762;37.780;2024-03-08T15:41:00;99725.16;;;2.73;58.24
82784;BME280;72520;55.762;37.780;2024-03-08T15:44:08;99730.38;;;2.75;58.37
82784;BME280;72520;55.762;37.780;2024-03-08T15:47:13;99735.56;;;2.76;58.85
82784;BME280;72520;55.762;37.780;2024-03-08T15:50:15;99735.66;;;2.73;58.96
82784;BME280;72520;55.762;37.780;2024-03-08T15:53:18;99735.44;;;2.79;58.76
82784;BME280;72520;55.762;37.780;2024-03-08T15:56:20;99751.81;;;2.63;59.19
82784;BME280;72520;55.762;37.780;2024-03-08T15:59:24;99748.69;;;2.51;59.38
82784;BME280;72520;55.762;37.780;2024-03-08T16:02:30;99751.16;;;2.56;59.49
82784;BME280;72520;55.762;37.780;2024-03-08T16:05:34;99752.25;;;2.75;58.89
82784;BME280;72520;55.762;37.780;2024-03-08T16:08:36;99740.53;;;3.08;58.79
82784;BME280;72520;55.762;37.780;2024-03-08T16:11:40;99744.19;;;3.04;57.96
82784;BME280;72520;55.762;37.780;2024-03-08T16:14:46;99749.16;;;2.89;58.04
82784;BME280;72520;55.762;37.780;2024-03-08T16:17:48;99748.06;;;2.94;58.13